KDFW/DFW METAR and TAF weather

Enter ICAO airport designator
Station Type Date Time Source
KDFW METAR 2019/06/16 20:47 UTC NOAA

KDFW 162047Z 31016G25KT 1SM R17C/1800V4000FT +TSRA BR FEW005 SCT010 OVC020CB 19/18 A2982 RMK AO2 PK WND 28028/2036 TWR VIS 3 LTG DSNT ALQDS RAB01 FRQ LTGICCG ALQDS TS ALQDS MOV E P0068 $


Station Type Date Time Source
KDFW Decoded METAR 2019/06/16 20:47 UTC NOAA

DALLAS/FT. WORTH INTERNATIONAL AIRPORT , TX, United States (KDFW) 32-54N 097-02W 174M
Jun 16, 2019 - 04:47 PM EDT / 2019.06.16 2047 UTC
Wind: from the NW (310 degrees) at 18 MPH (16 KT) gusting to 29 MPH (25 KT) (direction variable):0
Visibility: 1 mile(s):0
Sky conditions: overcast
Weather: heavy rain with thunder; mist; Cumulonimbus clouds, lightning observed
Precipitation last hour: 0.68 inches
Temperature: 66 F (19 C)
Dew Point: 64 F (18 C)
Relative Humidity: 93%
Pressure (altimeter): 29.82 in. Hg (1009 hPa)
ob: KDFW 162047Z 31016G25KT 1SM R17C/1800V4000FT +TSRA BR FEW005 SCT010 OVC020CB 19/18 A2982 RMK AO2 PK WND 28028/2036 TWR VIS 3 LTG DSNT ALQDS RAB01 FRQ LTGICCG ALQDS TS ALQDS MOV E P0068
cycle: 21

Station Type Date Time Source
KDFW TAF 2019/06/16 20:57 UTC NOAA

TAF
AMD KDFW 161954Z 1620/1724 12016KT P6SM VCTS BKN025CB
TEMPO 1620/1624 30020G35KT 2SM TSRA BKN015CB
FM170400 14014KT P6SM BKN050
FM171200 18010KT P6SM SCT025 BKN060

Example: see airport list